createdAt,value
2018-02-10T00:01:55.270Z,26.23
2018-02-10T00:03:58.788Z,26.57
2018-02-10T00:06:02.275Z,26.80
2018-02-10T00:08:06.640Z,26.80
2018-02-10T00:10:10.200Z,27.77
2018-02-10T00:12:13.624Z,24.13
2018-02-10T00:14:17.636Z,25.23
2018-02-10T00:16:20.984Z,26.40
2018-02-10T00:18:25.229Z,25.50
2018-02-10T00:20:28.695Z,27.53
2018-02-10T00:22:35.775Z,28.87
2018-02-10T00:24:39.148Z,27.27
2018-02-10T00:26:43.278Z,26.20
2018-02-10T00:28:46.651Z,27.67
2018-02-10T00:30:50.751Z,24.57
2018-02-10T00:32:55.439Z,26.20
2018-02-10T00:35:01.885Z,28.10
2018-02-10T00:37:05.390Z,27.07
2018-02-10T00:39:08.871Z,26.57
2018-02-10T00:41:12.224Z,26.13
2018-02-10T00:43:16.362Z,25.90
2018-02-10T00:45:19.752Z,24.67
2018-02-10T00:47:23.219Z,28.00
2018-02-10T00:49:26.671Z,25.30
2018-02-10T00:51:30.068Z,25.93
2018-02-10T00:53:33.531Z,25.63
2018-02-10T00:55:36.879Z,29.10
2018-02-10T00:57:40.450Z,27.13
2018-02-10T00:59:43.871Z,26.60
2018-02-10T01:01:47.381Z,26.90
2018-02-10T01:03:50.707Z,26.10
2018-02-10T01:05:54.154Z,28.23
2018-02-10T01:07:58.277Z,26.53
2018-02-10T01:10:02.449Z,25.80
2018-02-10T01:12:06.602Z,28.77
2018-02-10T01:14:09.962Z,27.67
2018-02-10T01:16:13.349Z,28.10
2018-02-10T01:18:16.944Z,29.60
2018-02-10T01:20:20.322Z,28.00
2018-02-10T01:22:23.699Z,26.80
2018-02-10T01:24:27.198Z,27.70
2018-02-10T01:26:30.592Z,28.47
2018-02-10T01:28:33.945Z,29.37
2018-02-10T01:30:38.086Z,28.13
2018-02-10T01:32:41.521Z,28.70
2018-02-10T01:34:44.869Z,27.40
2018-02-10T01:36:48.221Z,26.90
2018-02-10T01:38:51.604Z,26.53
2018-02-10T01:40:55.023Z,30.60
2018-02-10T01:42:58.382Z,27.17
2018-02-10T01:45:01.987Z,28.27
2018-02-10T01:47:06.230Z,26.50
2018-02-10T01:49:10.442Z,28.30
2018-02-10T01:51:14.566Z,30.20
2018-02-10T01:53:17.960Z,26.53
2018-02-10T01:55:21.400Z,28.33
2018-02-10T01:57:24.801Z,29.47
2018-02-10T01:59:28.928Z,29.10
2018-02-10T02:01:33.039Z,26.70
2018-02-10T02:03:37.158Z,28.10
2018-02-10T02:05:40.518Z,26.60
2018-02-10T02:07:43.912Z,27.37
2018-02-10T02:09:48.040Z,28.17
2018-02-10T02:11:51.385Z,28.23
2018-02-10T02:13:54.795Z,27.03
2018-02-10T02:15:59.006Z,29.53
2018-02-10T02:18:03.158Z,26.67
2018-02-10T02:20:07.269Z,26.40
2018-02-10T02:22:10.604Z,27.33
2018-02-10T02:24:14.002Z,26.13
2018-02-10T02:26:17.320Z,27.20
2018-02-10T02:28:21.437Z,28.90
2018-02-10T02:30:25.557Z,28.30
2018-02-10T02:32:29.270Z,25.93
2018-02-10T02:34:32.638Z,28.40
2018-02-10T02:36:35.986Z,27.27
2018-02-10T02:38:39.329Z,27.73
2018-02-10T02:40:42.683Z,28.00
2018-02-10T02:42:46.039Z,28.77
2018-02-10T02:44:49.432Z,28.47
2018-02-10T02:46:52.834Z,28.07
2018-02-10T02:48:56.215Z,27.63
2018-02-10T02:50:59.590Z,28.93
2018-02-10T02:53:02.975Z,26.83
2018-02-10T02:55:06.371Z,26.77
2018-02-10T02:57:09.727Z,28.30
2018-02-10T02:59:14.699Z,29.00
2018-02-10T03:01:18.049Z,28.30
2018-02-10T03:03:21.439Z,28.00
2018-02-10T03:05:25.641Z,28.53
2018-02-10T03:07:29.001Z,28.73
2018-02-10T03:09:32.394Z,31.50
2018-02-10T03:11:35.786Z,30.90
2018-02-10T03:13:39.136Z,28.83
2018-02-10T03:15:43.262Z,32.00
2018-02-10T03:17:47.384Z,28.37
2018-02-10T03:19:50.745Z,29.53
2018-02-10T03:21:54.162Z,30.30
2018-02-10T03:23:57.537Z,29.63
2018-02-10T03:26:01.634Z,29.30
2018-02-10T03:28:05.060Z,30.07
2018-02-10T03:30:08.424Z,29.57
2018-02-10T03:32:12.581Z,27.50
2018-02-10T03:34:15.936Z,29.00
2018-02-10T03:36:20.074Z,26.93
2018-02-10T03:38:23.490Z,27.53
2018-02-10T03:40:27.679Z,29.63
2018-02-10T03:42:33.037Z,29.30
2018-02-10T03:44:36.508Z,26.83
2018-02-10T03:46:39.870Z,26.70
2018-02-10T03:48:44.016Z,27.20
2018-02-10T03:50:47.357Z,30.23
2018-02-10T03:52:50.808Z,27.47
2018-02-10T03:54:54.206Z,29.50
2018-02-10T03:56:57.653Z,28.60
2018-02-10T03:59:01.797Z,27.60
2018-02-10T04:01:06.373Z,28.00
2018-02-10T04:03:09.738Z,28.40
2018-02-10T04:05:13.124Z,29.97
2018-02-10T04:07:16.502Z,30.17
2018-02-10T04:09:19.833Z,27.50
2018-02-10T04:11:23.209Z,30.17
2018-02-10T04:13:26.650Z,28.20
2018-02-10T04:15:30.045Z,30.77
2018-02-10T04:17:33.386Z,31.37
2018-02-10T04:19:37.579Z,28.47
2018-02-10T04:21:40.939Z,28.50
2018-02-10T04:23:44.263Z,27.50
2018-02-10T04:25:47.638Z,26.50
2018-02-10T04:27:50.984Z,28.43
2018-02-10T04:29:55.104Z,27.23
2018-02-10T04:31:59.251Z,29.07
2018-02-10T04:34:02.583Z,29.77
2018-02-10T04:36:05.960Z,26.07
2018-02-10T04:38:10.084Z,25.50
2018-02-10T04:40:13.426Z,26.00
2018-02-10T04:42:16.767Z,24.50
2018-02-10T04:44:20.896Z,25.57
2018-02-10T04:46:25.043Z,25.90
2018-02-10T04:48:28.406Z,24.73
2018-02-10T04:50:32.505Z,23.67
2018-02-10T04:52:35.881Z,24.23
2018-02-10T04:54:39.244Z,22.83
2018-02-10T04:56:42.588Z,26.13
2018-02-10T04:58:45.939Z,23.80
2018-02-10T05:00:49.333Z,22.90
2018-02-10T05:02:53.432Z,22.30
2018-02-10T05:04:56.746Z,24.60
2018-02-10T05:07:00.118Z,23.27
2018-02-10T05:09:03.505Z,22.10
2018-02-10T05:11:06.918Z,23.83
2018-02-10T05:13:10.281Z,22.73
2018-02-10T05:15:13.622Z,24.60
2018-02-10T05:17:16.994Z,22.83
2018-02-10T05:19:20.362Z,23.70
2018-02-10T05:21:23.698Z,23.20
2018-02-10T05:23:27.793Z,23.73
2018-02-10T05:25:31.908Z,22.07
2018-02-10T05:27:36.047Z,22.50
2018-02-10T05:29:39.367Z,26.23
2018-02-10T05:31:42.711Z,23.83
2018-02-10T05:33:46.079Z,23.13
2018-02-10T05:35:49.430Z,23.27
2018-02-10T05:37:53.589Z,24.70
2018-02-10T05:39:56.937Z,24.00
2018-02-10T05:42:00.257Z,24.57
2018-02-10T05:44:03.641Z,25.33
2018-02-10T05:46:06.965Z,25.07
2018-02-10T05:48:10.320Z,25.20
2018-02-10T05:50:13.699Z,24.00
2018-02-10T05:52:17.034Z,26.07
2018-02-10T05:54:20.419Z,27.20
2018-02-10T05:56:23.741Z,24.83
2018-02-10T05:58:27.086Z,23.93
2018-02-10T06:00:30.444Z,24.20
2018-02-10T06:02:33.839Z,22.17
2018-02-10T06:04:37.231Z,22.10
2018-02-10T06:06:40.563Z,24.60
2018-02-10T06:08:43.928Z,22.60
2018-02-10T06:10:47.276Z,22.33
2018-02-10T06:12:50.656Z,20.53
2018-02-10T06:14:54.026Z,20.63
2018-02-10T06:16:57.365Z,22.00
2018-02-10T06:19:00.741Z,21.40
2018-02-10T06:21:04.874Z,22.67
2018-02-10T06:23:08.277Z,24.40
2018-02-10T06:25:11.725Z,22.20
2018-02-10T06:27:15.961Z,22.50
2018-02-10T06:29:19.344Z,22.20
2018-02-10T06:31:22.736Z,22.33
2018-02-10T06:33:26.100Z,22.73
2018-02-10T06:35:29.695Z,21.10
2018-02-10T06:37:33.883Z,23.00
2018-02-10T06:39:37.257Z,20.77
2018-02-10T06:41:40.651Z,23.93
2018-02-10T06:43:44.005Z,21.60
2018-02-10T06:45:48.131Z,22.40
2018-02-10T06:47:52.158Z,22.53
2018-02-10T06:49:55.536Z,22.20
2018-02-10T06:51:58.920Z,25.27
2018-02-10T06:54:02.317Z,23.70
2018-02-10T06:56:06.450Z,21.10
2018-02-10T06:58:09.904Z,23.73
2018-02-10T07:00:14.008Z,23.60
2018-02-10T07:02:18.140Z,22.53
2018-02-10T07:04:21.556Z,22.20
2018-02-10T07:06:24.930Z,23.10
2018-02-10T07:08:28.268Z,23.93
2018-02-10T07:10:31.652Z,22.20
2018-02-10T07:12:35.033Z,23.60
2018-02-10T07:14:38.409Z,22.30
2018-02-10T07:16:41.797Z,24.00
2018-02-10T07:18:45.175Z,23.10
2018-02-10T07:20:48.739Z,24.20
2018-02-10T07:22:52.877Z,23.40
2018-02-10T07:24:56.299Z,22.50
2018-02-10T07:26:59.684Z,22.70
2018-02-10T07:29:03.098Z,24.40
2018-02-10T07:31:06.554Z,23.10
2018-02-10T07:33:09.946Z,21.37
2018-02-10T07:35:13.274Z,22.50
2018-02-10T07:37:16.663Z,22.73
2018-02-10T07:39:21.099Z,22.47
2018-02-10T07:41:24.511Z,26.97
2018-02-10T07:43:27.867Z,26.67
2018-02-10T07:45:31.246Z,24.07
2018-02-10T07:47:35.960Z,24.33
2018-02-10T07:49:39.390Z,23.83
2018-02-10T07:51:42.868Z,22.80
2018-02-10T07:53:46.230Z,22.30
2018-02-10T07:55:49.613Z,23.80
2018-02-10T07:57:53.114Z,23.30
2018-02-10T07:59:57.313Z,22.03
2018-02-10T08:02:01.501Z,21.40
2018-02-10T08:04:04.942Z,23.17
2018-02-10T08:06:08.331Z,22.90
2018-02-10T08:08:12.621Z,22.17
2018-02-10T08:10:16.781Z,22.27
2018-02-10T08:12:20.961Z,27.10
2018-02-10T08:14:24.410Z,24.40
2018-02-10T08:16:28.169Z,26.33
2018-02-10T08:18:31.617Z,23.73
2018-02-10T08:20:34.986Z,24.50
2018-02-10T08:22:38.399Z,24.93
2018-02-10T08:24:42.529Z,24.43
2018-02-10T08:26:45.947Z,23.70
2018-02-10T08:28:49.419Z,25.27
2018-02-10T08:30:52.872Z,22.03
2018-02-10T08:32:56.715Z,23.30
2018-02-10T08:37:13.066Z,23.17
2018-02-10T08:39:16.523Z,23.73
2018-02-10T08:41:19.886Z,22.83
2018-02-10T08:43:24.324Z,23.00
2018-02-10T08:45:28.638Z,23.37
2018-02-10T08:47:32.070Z,25.50
2018-02-10T08:49:35.480Z,23.80
2018-02-10T08:51:38.909Z,21.97
2018-02-10T08:53:42.613Z,23.90
2018-02-10T08:55:47.234Z,22.90
2018-02-10T08:57:51.623Z,22.13
2018-02-10T08:59:55.999Z,23.03
2018-02-10T09:01:59.464Z,20.20
2018-02-10T09:04:04.323Z,20.33
2018-02-10T09:06:07.834Z,22.23
2018-02-10T09:08:11.248Z,22.67
2018-02-10T09:10:16.599Z,22.13
2018-02-10T09:12:20.770Z,22.60
2018-02-10T09:14:24.274Z,23.80
2018-02-10T09:16:27.637Z,23.37
2018-02-10T09:18:31.024Z,23.60
2018-02-10T09:20:34.409Z,21.73
2018-02-10T09:22:37.805Z,22.17
2018-02-10T09:24:41.605Z,22.47
2018-02-10T09:26:45.302Z,24.07
2018-02-10T09:28:48.725Z,25.37
2018-02-10T09:30:52.401Z,22.20
2018-02-10T09:32:57.586Z,25.20
2018-02-10T09:35:02.248Z,25.03
2018-02-10T09:37:07.860Z,23.23
2018-02-10T09:39:11.335Z,24.40
2018-02-10T09:41:16.528Z,24.40
2018-02-10T09:43:20.070Z,26.10
2018-02-10T09:45:23.573Z,22.47
2018-02-10T09:47:26.969Z,25.00
2018-02-10T09:49:30.572Z,26.43
2018-02-10T09:51:34.770Z,25.50
2018-02-10T09:53:42.045Z,22.23
2018-02-10T09:55:45.662Z,24.03
2018-02-10T09:57:49.073Z,23.93
2018-02-10T09:59:53.958Z,19.27
2018-02-10T10:01:58.994Z,20.50
2018-02-10T10:04:03.915Z,19.33
2018-02-10T10:06:10.155Z,23.30
2018-02-10T10:08:13.975Z,22.80
2018-02-10T10:10:17.740Z,22.63
2018-02-10T10:12:21.961Z,21.33
2018-02-10T10:14:25.384Z,21.83
2018-02-10T10:16:29.524Z,23.03
2018-02-10T10:18:33.490Z,23.00
2018-02-10T10:20:37.350Z,24.23
2018-02-10T10:22:40.781Z,21.60
2018-02-10T10:24:44.807Z,19.70
2018-02-10T10:26:48.432Z,23.33
2018-02-10T10:28:53.316Z,23.30
2018-02-10T10:30:56.678Z,22.40
2018-02-10T10:33:00.547Z,22.13
2018-02-10T10:35:06.061Z,21.50
2018-02-10T10:37:10.241Z,22.10
2018-02-10T10:39:13.641Z,21.87
2018-02-10T10:41:17.013Z,22.43
2018-02-10T10:43:20.745Z,21.40
2018-02-10T10:45:24.137Z,21.90
2018-02-10T10:47:27.525Z,21.27
2018-02-10T10:49:31.812Z,22.40
2018-02-10T10:51:36.058Z,22.23
2018-02-10T10:53:39.415Z,21.53
2018-02-10T10:55:43.267Z,21.10
2018-02-10T10:57:46.610Z,21.37
2018-02-10T10:59:50.040Z,19.33
2018-02-10T11:01:53.829Z,20.90
2018-02-10T11:03:57.223Z,21.80
2018-02-10T11:06:01.039Z,18.90
2018-02-10T11:08:04.518Z,19.00
2018-02-10T11:10:07.939Z,16.50
2018-02-10T11:12:11.305Z,19.70
2018-02-10T11:14:14.675Z,20.47
2018-02-10T11:16:18.902Z,19.80
2018-02-10T11:18:22.248Z,18.30
2018-02-10T11:20:26.393Z,17.43
2018-02-10T11:22:29.752Z,15.80
2018-02-10T11:24:33.108Z,13.93
2018-02-10T11:26:36.501Z,13.63
2018-02-10T11:28:39.858Z,15.27
2018-02-10T11:30:43.330Z,13.50
2018-02-10T11:32:46.716Z,13.80
2018-02-10T11:34:50.144Z,11.10
2018-02-10T11:36:53.563Z,11.60
2018-02-10T11:38:56.889Z,12.70
2018-02-10T11:41:01.335Z,10.77
2018-02-10T11:43:05.804Z,14.03
2018-02-10T11:45:09.159Z,13.10
2018-02-10T11:47:12.589Z,15.40
2018-02-10T11:49:16.710Z,12.90
2018-02-10T11:51:21.011Z,12.83
2018-02-10T11:53:25.225Z,13.63
2018-02-10T11:55:28.586Z,12.83
2018-02-10T11:57:32.289Z,12.67
2018-02-10T11:59:36.567Z,13.80
2018-02-10T12:01:39.893Z,14.43
2018-02-10T12:03:43.291Z,12.33
2018-02-10T12:05:46.670Z,13.30
2018-02-10T12:07:50.081Z,13.30
2018-02-10T12:09:53.487Z,12.40
2018-02-10T12:11:56.938Z,12.80
2018-02-10T12:14:03.118Z,13.87
2018-02-10T12:16:11.444Z,13.30
2018-02-10T12:18:16.819Z,13.57
2018-02-10T12:20:20.552Z,16.60
2018-02-10T12:22:23.935Z,12.30
2018-02-10T12:24:27.365Z,14.30
2018-02-10T12:26:30.979Z,12.70
2018-02-10T12:28:35.933Z,12.80
2018-02-10T12:30:40.184Z,11.83
2018-02-10T12:32:43.592Z,13.90
2018-02-10T12:34:46.952Z,12.23
2018-02-10T12:36:50.386Z,12.93
2018-02-10T12:38:53.726Z,14.10
2018-02-10T12:40:57.188Z,14.20
2018-02-10T12:43:00.584Z,13.40
2018-02-10T12:45:04.741Z,10.80
2018-02-10T12:47:08.745Z,12.73
2018-02-10T12:49:21.720Z,12.90
2018-02-10T12:51:25.435Z,12.33
2018-02-10T12:53:29.631Z,13.30
2018-02-10T12:55:33.184Z,12.50
2018-02-10T12:57:37.565Z,12.40
2018-02-10T12:59:43.378Z,12.33
2018-02-10T13:01:46.999Z,13.23
2018-02-10T13:03:51.417Z,12.73
2018-02-10T13:05:54.848Z,12.23
2018-02-10T13:07:58.348Z,11.90
2018-02-10T13:10:03.133Z,14.97
2018-02-10T13:12:07.750Z,14.97
2018-02-10T13:14:12.247Z,14.57
2018-02-10T13:16:15.824Z,13.57
2018-02-10T13:18:20.025Z,13.50
2018-02-10T13:20:23.376Z,12.80
2018-02-10T13:22:27.588Z,14.73
2018-02-10T13:24:31.016Z,13.67
2018-02-10T13:26:34.353Z,17.13
2018-02-10T13:28:39.152Z,15.07
2018-02-10T13:30:43.459Z,15.03
2018-02-10T13:32:47.013Z,15.13
2018-02-10T13:34:50.384Z,17.47
2018-02-10T13:36:55.784Z,15.63
2018-02-10T13:38:59.163Z,15.17
2018-02-10T13:41:03.406Z,15.50
2018-02-10T13:43:06.843Z,14.60
2018-02-10T13:45:10.274Z,14.97
2018-02-10T13:47:13.604Z,14.97
2018-02-10T13:49:17.748Z,15.73
2018-02-10T13:51:21.833Z,19.27
2018-02-10T13:53:25.193Z,15.40
2018-02-10T13:55:28.545Z,14.70
2018-02-10T13:57:32.757Z,13.90
2018-02-10T13:59:36.126Z,13.50
2018-02-10T14:01:40.220Z,14.97
2018-02-10T14:03:44.302Z,13.67
2018-02-10T14:05:47.650Z,14.63
2018-02-10T14:07:51.046Z,14.73
2018-02-10T14:09:54.448Z,14.20
2018-02-10T14:11:57.784Z,16.00
2018-02-10T14:14:01.153Z,13.93
2018-02-10T14:16:04.556Z,14.87
2018-02-10T14:18:08.529Z,13.90
2018-02-10T14:20:11.918Z,14.80
2018-02-10T14:22:15.306Z,13.47
2018-02-10T14:24:19.022Z,13.20
2018-02-10T14:26:23.458Z,14.17
2018-02-10T14:28:27.624Z,12.30
2018-02-10T14:30:30.970Z,13.37
2018-02-10T14:32:34.734Z,14.13
2018-02-10T14:34:38.135Z,14.10
2018-02-10T14:36:41.499Z,13.10
2018-02-10T14:38:44.843Z,13.77
2018-02-10T14:40:49.690Z,13.97
2018-02-10T14:42:53.798Z,13.60
2018-02-10T14:44:57.224Z,12.90
2018-02-10T14:47:00.613Z,13.17
2018-02-10T14:49:03.990Z,13.50
2018-02-10T14:51:08.173Z,13.67
2018-02-10T14:53:11.563Z,14.10
2018-02-10T14:55:14.904Z,14.70
2018-02-10T14:57:18.246Z,15.17
2018-02-10T14:59:22.396Z,13.83
2018-02-10T15:01:25.745Z,14.57
2018-02-10T15:03:29.097Z,15.33
2018-02-10T15:05:32.433Z,14.00
2018-02-10T15:07:36.589Z,14.43
2018-02-10T15:09:39.964Z,14.80
2018-02-10T15:11:43.313Z,16.03
2018-02-10T15:13:46.668Z,14.07
2018-02-10T15:15:50.052Z,16.20
2018-02-10T15:17:53.391Z,18.37
2018-02-10T15:19:56.756Z,17.47
2018-02-10T15:22:00.093Z,15.93
2018-02-10T15:24:03.467Z,16.93
2018-02-10T15:26:06.869Z,15.83
2018-02-10T15:28:10.250Z,16.37
2018-02-10T15:30:25.442Z,17.10
2018-02-10T15:32:40.565Z,17.90
2018-02-10T15:34:55.672Z,15.43
2018-02-10T15:36:59.783Z,20.43
2018-02-10T15:39:03.135Z,18.70
2018-02-10T15:41:07.289Z,20.73
2018-02-10T15:43:11.379Z,18.37
2018-02-10T15:45:15.507Z,17.93
2018-02-10T15:47:18.840Z,15.53
2018-02-10T15:49:22.180Z,16.57
2018-02-10T15:51:27.507Z,15.70
2018-02-10T15:53:30.871Z,15.53
2018-02-10T15:55:34.221Z,16.60
2018-02-10T15:57:37.584Z,16.83
2018-02-10T15:59:40.949Z,14.70
2018-02-10T16:01:44.291Z,15.90
2018-02-10T16:03:47.641Z,16.33
2018-02-10T16:05:50.981Z,20.13
2018-02-10T16:07:54.352Z,18.20
2018-02-10T16:09:58.481Z,21.50
2018-02-10T16:12:01.858Z,17.00
2018-02-10T16:14:06.065Z,17.77
2018-02-10T16:16:10.286Z,19.33
2018-02-10T16:18:13.637Z,18.10
2018-02-10T16:20:16.998Z,18.13
2018-02-10T16:22:21.152Z,18.10
2018-02-10T16:24:25.283Z,17.40
2018-02-10T16:26:29.450Z,16.80
2018-02-10T16:28:32.812Z,17.90
2018-02-10T16:30:36.241Z,18.40
2018-02-10T16:32:39.590Z,18.33
2018-02-10T16:34:43.729Z,16.50
2018-02-10T16:36:47.466Z,17.23
2018-02-10T16:38:50.812Z,18.83
2018-02-10T16:40:54.145Z,17.33
2018-02-10T16:42:57.473Z,20.67
2018-02-10T16:45:00.878Z,17.77
2018-02-10T16:47:04.283Z,18.57
2018-02-10T16:49:08.498Z,16.30
2018-02-10T16:51:11.897Z,20.50
2018-02-10T16:53:15.288Z,19.63
2018-02-10T16:55:18.649Z,19.80
2018-02-10T16:57:22.737Z,17.90
2018-02-10T16:59:27.932Z,19.47
2018-02-10T17:01:31.635Z,18.80
2018-02-10T17:03:35.299Z,19.13
2018-02-10T17:05:39.694Z,17.70
2018-02-10T17:07:44.007Z,19.20
2018-02-10T17:09:48.407Z,19.10
2018-02-10T17:11:51.850Z,19.60
2018-02-10T17:13:55.225Z,19.40
2018-02-10T17:15:58.554Z,17.00
2018-02-10T17:18:01.899Z,18.87
2018-02-10T17:20:07.121Z,19.77
2018-02-10T17:22:11.237Z,19.57
2018-02-10T17:24:15.333Z,18.20
2018-02-10T17:26:19.374Z,19.10
2018-02-10T17:28:22.696Z,18.23
2018-02-10T17:30:27.857Z,19.37
2018-02-10T17:32:31.221Z,18.40
2018-02-10T17:34:34.621Z,18.97
2018-02-10T17:36:39.186Z,19.60
2018-02-10T17:38:42.770Z,19.27
2018-02-10T17:40:46.132Z,18.20
2018-02-10T17:42:49.466Z,18.37
2018-02-10T17:44:53.594Z,18.37
2018-02-10T17:46:57.084Z,17.83
2018-02-10T17:49:02.305Z,19.47
2018-02-10T17:51:06.431Z,18.37
2018-02-10T17:53:09.760Z,17.67
2018-02-10T17:55:13.115Z,18.83
2018-02-10T17:57:16.528Z,17.50
2018-02-10T17:59:19.863Z,18.30
2018-02-10T18:01:23.231Z,17.67
2018-02-10T18:03:26.573Z,16.57
2018-02-10T18:05:29.946Z,16.70
2018-02-10T18:07:33.307Z,19.20
2018-02-10T18:09:36.662Z,18.13
2018-02-10T18:11:40.078Z,17.20
2018-02-10T18:13:43.490Z,17.60
2018-02-10T18:15:47.326Z,22.13
2018-02-10T18:17:50.704Z,19.07
2018-02-10T18:19:54.768Z,14.87
2018-02-10T18:21:58.898Z,15.90
2018-02-10T18:24:03.019Z,15.07
2018-02-10T18:26:06.388Z,16.20
2018-02-10T18:28:10.022Z,15.47
2018-02-10T18:30:13.383Z,16.73
2018-02-10T18:32:16.780Z,15.80
2018-02-10T18:34:20.169Z,16.47
2018-02-10T18:36:23.556Z,16.40
2018-02-10T18:38:26.918Z,16.50
2018-02-10T18:40:30.328Z,17.30
2018-02-10T18:42:33.688Z,17.67
2018-02-10T18:44:37.072Z,16.70
2018-02-10T18:46:40.486Z,20.63
2018-02-10T18:48:43.823Z,18.43
2018-02-10T18:50:47.903Z,18.40
2018-02-10T18:52:51.252Z,16.90
2018-02-10T18:54:54.622Z,18.30
2018-02-10T18:56:57.958Z,19.73
2018-02-10T18:59:01.364Z,19.53
2018-02-10T19:01:04.787Z,23.20
2018-02-10T19:03:09.076Z,24.50
2018-02-10T19:05:14.675Z,26.30
2018-02-10T19:07:18.793Z,25.93
2018-02-10T19:09:22.149Z,24.93
2018-02-10T19:11:25.540Z,25.40
2018-02-10T19:13:29.273Z,25.83
2018-02-10T19:15:33.425Z,28.17
2018-02-10T19:17:36.779Z,24.60
2018-02-10T19:19:45.957Z,28.40
2018-02-10T19:21:52.457Z,26.60
2018-02-10T19:23:56.645Z,27.60
2018-02-10T19:26:00.765Z,27.20
2018-02-10T19:28:04.193Z,24.87
2018-02-10T19:30:08.393Z,22.93
2018-02-10T19:32:12.509Z,23.20
2018-02-10T19:34:15.887Z,23.47
2018-02-10T19:36:19.988Z,22.60
2018-02-10T19:38:25.239Z,22.17
2018-02-10T19:40:29.370Z,21.27
2018-02-10T19:42:33.520Z,21.00
2018-02-10T19:44:37.367Z,19.33
2018-02-10T19:46:40.813Z,20.40
2018-02-10T19:48:45.024Z,18.67
2018-02-10T19:50:49.220Z,19.17
2018-02-10T19:52:52.560Z,17.77
2018-02-10T19:54:56.712Z,17.70
2018-02-10T19:57:00.037Z,19.80
2018-02-10T19:59:03.400Z,17.47
2018-02-10T20:01:06.825Z,16.87
2018-02-10T20:03:11.454Z,16.53
2018-02-10T20:05:14.915Z,17.07
2018-02-10T20:07:19.074Z,15.97
2018-02-10T20:09:22.570Z,17.13
2018-02-10T20:11:25.895Z,14.63
2018-02-10T20:13:29.315Z,14.37
2018-02-10T20:15:33.578Z,15.30
2018-02-10T20:17:36.943Z,15.37
2018-02-10T20:19:47.575Z,16.63
2018-02-10T20:21:53.794Z,16.10
2018-02-10T20:23:57.213Z,14.60
2018-02-10T20:26:01.558Z,14.43
2018-02-10T20:28:05.875Z,15.07
2018-02-10T20:30:12.914Z,15.83
2018-02-10T20:32:17.078Z,15.27
2018-02-10T20:34:21.270Z,17.77
2018-02-10T20:36:24.700Z,16.77
2018-02-10T20:38:28.076Z,18.40
2018-02-10T20:40:32.388Z,22.27
2018-02-10T20:42:36.603Z,16.90
2018-02-10T20:44:40.703Z,18.17
2018-02-10T20:46:44.169Z,16.03
2018-02-10T20:48:47.507Z,15.80
2018-02-10T20:50:50.855Z,17.10
2018-02-10T20:52:54.264Z,15.30
2018-02-10T20:54:58.194Z,12.97
2018-02-10T20:57:02.337Z,13.40
2018-02-10T20:59:06.357Z,14.80
2018-02-10T21:01:09.688Z,16.57
2018-02-10T21:03:13.851Z,18.80
2018-02-10T21:05:17.237Z,19.57
2018-02-10T21:07:20.647Z,19.57
2018-02-10T21:09:23.975Z,17.80
2018-02-10T21:11:28.131Z,13.20
2018-02-10T21:13:31.512Z,13.60
2018-02-10T21:15:34.918Z,13.27
2018-02-10T21:17:39.108Z,13.80
2018-02-10T21:19:42.479Z,13.60
2018-02-10T21:21:45.811Z,15.73
2018-02-10T21:23:49.126Z,13.77
2018-02-10T21:25:52.446Z,13.37
2018-02-10T21:27:56.684Z,14.13
2018-02-10T21:30:00.034Z,14.83
2018-02-10T21:32:03.396Z,11.10
2018-02-10T21:34:06.796Z,18.80
2018-02-10T21:36:10.226Z,17.90
2018-02-10T21:38:13.634Z,14.70
2018-02-10T21:40:16.989Z,19.27
2018-02-10T21:42:20.340Z,15.60
2018-02-10T21:44:23.675Z,19.70
2018-02-10T21:46:27.785Z,20.57
2018-02-10T21:48:31.157Z,26.70
2018-02-10T21:50:34.497Z,18.10
2018-02-10T21:52:37.844Z,19.70
2018-02-10T21:54:41.209Z,16.50
2018-02-10T21:56:44.549Z,17.87
2018-02-10T21:58:47.921Z,15.87
2018-02-10T22:00:51.284Z,17.27
2018-02-10T22:02:54.650Z,14.93
2018-02-10T22:04:58.764Z,16.30
2018-02-10T22:07:02.897Z,14.47
2018-02-10T22:09:07.036Z,22.87
2018-02-10T22:11:10.367Z,15.80
2018-02-10T22:13:14.469Z,16.97
2018-02-10T22:15:17.823Z,17.20
2018-02-10T22:17:21.151Z,14.00
2018-02-10T22:19:24.572Z,13.83
2018-02-10T22:21:27.914Z,15.40
2018-02-10T22:23:32.062Z,15.50
2018-02-10T22:25:35.416Z,15.30
2018-02-10T22:27:38.787Z,17.07
2018-02-10T22:29:42.167Z,13.70
2018-02-10T22:31:45.509Z,14.23
2018-02-10T22:33:49.676Z,13.57
2018-02-10T22:35:53.070Z,12.90
2018-02-10T22:37:56.404Z,14.20
2018-02-10T22:39:59.775Z,14.00
2018-02-10T22:42:03.907Z,12.23
2018-02-10T22:44:08.029Z,12.60
2018-02-10T22:46:12.118Z,13.53
2018-02-10T22:48:15.463Z,14.53
2018-02-10T22:50:18.856Z,11.90
2018-02-10T22:52:22.210Z,13.93
2018-02-10T22:54:26.306Z,13.10
2018-02-10T22:56:30.411Z,12.97
2018-02-10T22:58:33.763Z,12.07
2018-02-10T23:00:37.118Z,12.63
2018-02-10T23:02:40.483Z,14.47
2018-02-10T23:04:43.865Z,14.40
2018-02-10T23:06:47.993Z,13.47
2018-02-10T23:08:52.126Z,13.13
2018-02-10T23:10:55.517Z,13.83
2018-02-10T23:12:58.888Z,13.47
2018-02-10T23:15:02.253Z,11.97
2018-02-10T23:17:05.610Z,13.43
2018-02-10T23:19:08.972Z,12.77
2018-02-10T23:21:13.092Z,11.33
2018-02-10T23:23:16.471Z,12.73
2018-02-10T23:25:19.832Z,11.10
2018-02-10T23:27:23.161Z,13.30
2018-02-10T23:29:26.541Z,11.30
2018-02-10T23:31:30.693Z,11.40
2018-02-10T23:33:34.095Z,11.50
2018-02-10T23:35:37.463Z,12.10
2018-02-10T23:37:40.803Z,12.20
2018-02-10T23:39:44.931Z,11.60
2018-02-10T23:41:49.088Z,10.63
2018-02-10T23:43:52.456Z,10.87
2018-02-10T23:45:55.826Z,12.03
2018-02-10T23:47:59.168Z,12.10
2018-02-10T23:50:02.501Z,10.70
2018-02-10T23:52:05.873Z,11.37
2018-02-10T23:54:09.216Z,13.03
2018-02-10T23:56:12.578Z,12.67
2018-02-10T23:58:15.966Z,15.20
